Time;durP1;ratioP1;P1;durP2;ratioP2;P2;SDS_P1;SDS_P2;PMS_P1;PMS_P2;Temp;Humidity;BMP_temperature;BMP_pressure;BME280_temperature;BME280_humidity;BME280_pressure;Samples;Min_cycle;Max_cycle;Signal;HPM_P1;HPM_P2
2023/10/30 00:01:02;;;;;;;4.97;2.03;;;;;;;20.91;100.00;95184.44;5048265;28;20013;-80
2023/10/30 00:03:29;;;;;;;6.80;2.97;;;;;;;21.47;100.00;95184.28;5026466;28;20029;-80
2023/10/30 00:05:55;;;;;;;8.80;3.63;;;;;;;20.68;100.00;95188.19;5025875;28;20494;-80
2023/10/30 00:08:22;;;;;;;5.60;2.67;;;;;;;20.77;100.00;95188.56;5021445;28;20032;-80
2023/10/30 00:10:48;;;;;;;5.30;2.27;;;;;;;20.48;100.00;95194.03;5029299;28;20021;-80
2023/10/30 00:13:13;;;;;;;4.87;2.30;;;;;;;20.83;100.00;95192.91;5023369;28;20016;-80
2023/10/30 00:15:39;;;;;;;3.93;1.93;;;;;;;21.26;100.00;95193.94;5020690;28;20028;-80
2023/10/30 00:18:04;;;;;;;4.83;2.27;;;;;;;21.74;100.00;95197.63;5018046;28;20436;-80
2023/10/30 00:20:30;;;;;;;6.00;1.90;;;;;;;21.58;100.00;95199.34;5037318;28;20025;-80
2023/10/30 00:23:04;;;;;;;4.57;2.50;;;;;;;20.59;100.00;95208.38;5022155;28;20051;-79
2023/10/30 00:25:29;;;;;;;5.47;2.07;;;;;;;21.25;100.00;95211.03;5012759;28;20021;-80
2023/10/30 00:27:59;;;;;;;5.23;1.80;;;;;;;21.12;100.00;95196.16;5031354;28;20032;-79
2023/10/30 00:30:26;;;;;;;4.50;2.27;;;;;;;21.13;100.00;95213.84;5004740;28;20036;-79
2023/10/30 00:32:52;;;;;;;3.73;1.80;;;;;;;21.59;100.00;95217.00;5017082;28;20482;-79
2023/10/30 00:35:18;;;;;;;6.80;2.00;;;;;;;21.37;100.00;95218.94;5028483;28;20048;-79
2023/10/30 00:37:44;;;;;;;5.37;1.80;;;;;;;20.65;100.00;95227.94;5017165;28;20033;-79
2023/10/30 00:40:11;;;;;;;3.83;1.80;;;;;;;20.95;100.00;95230.19;5029532;28;20025;-79
2023/10/30 00:42:36;;;;;;;5.10;1.50;;;;;;;20.89;100.00;95231.19;5022215;28;20386;-80
2023/10/30 00:45:05;;;;;;;4.93;1.60;;;;;;;20.54;100.00;95240.34;5020839;28;20051;-80
2023/10/30 00:47:31;;;;;;;3.00;1.40;;;;;;;20.56;100.00;95240.13;5013297;28;20021;-79
2023/10/30 00:49:57;;;;;;;4.30;2.03;;;;;;;21.09;100.00;95228.78;5012261;28;20086;-80
2023/10/30 00:52:22;;;;;;;3.97;1.60;;;;;;;20.59;100.00;95229.75;5019705;28;20036;-79
2023/10/30 00:54:54;;;;;;;6.10;1.80;;;;;;;20.83;100.00;95230.31;5021689;28;20036;-81
2023/10/30 00:57:19;;;;;;;6.77;1.47;;;;;;;20.48;100.00;95234.09;5036448;28;20029;-80
2023/10/30 00:59:45;;;;;;;3.77;1.83;;;;;;;20.49;100.00;95234.94;5033633;28;20028;-80
2023/10/30 01:02:10;;;;;;;3.03;1.43;;;;;;;20.44;100.00;95235.63;5030650;28;20028;-80
2023/10/30 01:04:37;;;;;;;4.53;1.93;;;;;;;20.06;100.00;95235.59;5011799;28;20466;-79
2023/10/30 01:07:03;;;;;;;3.60;1.80;;;;;;;20.61;100.00;95245.53;5025418;28;20027;-79
2023/10/30 01:09:28;;;;;;;4.30;2.47;;;;;;;20.51;100.00;95232.03;5029413;28;20037;-80
2023/10/30 01:11:54;;;;;;;6.57;3.97;;;;;;;20.52;100.00;95239.78;5018700;28;20063;-79
2023/10/30 01:14:20;;;;;;;3.93;2.63;;;;;;;20.23;100.00;95236.41;5018609;28;20028;-79
2023/10/30 01:16:46;;;;;;;6.77;3.30;;;;;;;20.19;100.00;95243.28;5014572;28;20021;-80
2023/10/30 01:19:11;;;;;;;6.53;3.67;;;;;;;20.55;100.00;95249.16;5025623;28;20032;-79
2023/10/30 01:21:37;;;;;;;5.87;3.70;;;;;;;20.33;100.00;95251.78;5014262;28;20039;-79
2023/10/30 01:24:05;;;;;;;5.90;4.27;;;;;;;20.27;100.00;95256.22;5018916;28;20032;-79
2023/10/30 01:26:31;;;;;;;7.20;3.73;;;;;;;20.52;100.00;95271.03;5030790;28;20029;-79
2023/10/30 01:28:58;;;;;;;7.43;4.10;;;;;;;19.92;100.00;95261.78;5011917;28;20082;-79
2023/10/30 01:31:27;;;;;;;7.93;4.50;;;;;;;20.34;100.00;95258.72;5018821;28;20141;-79
2023/10/30 01:33:57;;;;;;;12.47;6.27;;;;;;;20.29;100.00;95264.81;5034240;28;20113;-79
2023/10/30 01:36:23;;;;;;;9.63;4.40;;;;;;;20.53;100.00;95273.47;5015327;28;20055;-79
2023/10/30 01:38:49;;;;;;;9.10;4.17;;;;;;;20.47;100.00;95275.22;5026696;28;20417;-80
2023/10/30 01:41:14;;;;;;;6.03;4.23;;;;;;;20.36;100.00;95278.78;5041645;28;20024;-80
2023/10/30 01:43:50;;;;;;;4.93;3.37;;;;;;;20.22;100.00;95278.31;5030133;28;20039;-80
2023/10/30 01:46:16;;;;;;;6.37;4.23;;;;;;;20.43;100.00;95268.75;5031370;28;20536;-79
2023/10/30 01:48:44;;;;;;;6.90;3.93;;;;;;;21.11;100.00;95257.91;5030668;28;20498;-79
2023/10/30 01:51:11;;;;;;;4.53;2.97;;;;;;;21.07;100.00;95265.63;5034182;28;20159;-79
2023/10/30 01:53:38;;;;;;;6.83;3.40;;;;;;;20.97;100.00;95262.84;5016281;28;20098;-79
2023/10/30 01:56:06;;;;;;;7.70;3.73;;;;;;;20.79;100.00;95255.09;5026896;28;20021;-79
2023/10/30 01:58:36;;;;;;;5.10;3.13;;;;;;;20.84;100.00;95264.00;5013853;28;21439;-79
2023/10/30 02:01:02;;;;;;;5.40;3.03;;;;;;;21.47;100.00;95258.38;5020293;28;20772;-79
2023/10/30 02:03:28;;;;;;;5.50;3.30;;;;;;;21.10;100.00;95262.47;5013821;28;20070;-79
2023/10/30 02:05:54;;;;;;;6.33;3.77;;;;;;;21.20;100.00;95259.09;5016187;28;20012;-80
2023/10/30 02:08:20;;;;;;;6.20;3.77;;;;;;;21.08;100.00;95248.53;5037410;28;20536;-79
2023/10/30 02:10:46;;;;;;;6.83;4.00;;;;;;;20.95;100.00;95252.38;5028301;28;20028;-80
2023/10/30 02:13:12;;;;;;;6.90;3.90;;;;;;;21.22;100.00;95248.94;5015006;28;20025;-81
2023/10/30 02:15:38;;;;;;;5.80;3.90;;;;;;;20.98;100.00;95248.41;5004726;28;20157;-79
2023/10/30 02:18:04;;;;;;;7.30;4.63;;;;;;;20.83;100.00;95262.41;5008985;28;20056;-79
2023/10/30 02:20:30;;;;;;;7.37;3.70;;;;;;;21.26;100.00;95243.91;5011052;28;20028;-80
2023/10/30 02:22:56;;;;;;;5.27;3.63;;;;;;;21.31;100.00;95250.13;5035881;28;20048;-79
2023/10/30 02:25:25;;;;;;;7.23;3.57;;;;;;;21.10;100.00;95250.97;5032687;28;20024;-80
2023/10/30 02:27:51;;;;;;;6.83;4.10;;;;;;;21.40;100.00;95254.03;5015373;28;20057;-80
2023/10/30 02:30:16;;;;;;;7.43;4.90;;;;;;;21.14;100.00;95252.06;5010811;28;20120;-79
2023/10/30 02:32:44;;;;;;;7.33;4.77;;;;;;;21.15;100.00;95243.00;5013395;28;20254;-79
2023/10/30 02:35:19;;;;;;;6.17;4.47;;;;;;;21.64;100.00;95253.72;5017389;28;20507;-79
2023/10/30 02:37:46;;;;;;;8.20;4.57;;;;;;;20.84;100.00;95255.97;5007289;28;20017;-79
2023/10/30 02:40:15;;;;;;;7.47;4.60;;;;;;;22.03;100.00;95238.28;5025398;28;20025;-79
2023/10/30 02:42:41;;;;;;;6.00;4.30;;;;;;;21.84;100.00;95245.09;5001598;28;20130;-79
2023/10/30 02:45:07;;;;;;;6.40;4.47;;;;;;;22.05;100.00;95235.34;5007375;28;21073;-80
2023/10/30 02:47:34;;;;;;;6.73;4.80;;;;;;;21.27;100.00;95238.34;4996487;28;20026;-79
2023/10/30 02:50:01;;;;;;;7.03;5.00;;;;;;;22.10;100.00;95238.88;5014284;28;20037;-79
2023/10/30 02:52:29;;;;;;;6.60;4.53;;;;;;;22.38;100.00;95236.16;4997404;28;20053;-80
2023/10/30 02:54:54;;;;;;;7.23;4.80;;;;;;;22.58;99.77;95247.00;5012011;28;20029;-79
2023/10/30 02:57:21;;;;;;;7.37;4.43;;;;;;;21.98;100.00;95253.50;5009676;28;20018;-79
2023/10/30 02:59:46;;;;;;;6.20;4.10;;;;;;;21.54;100.00;95250.94;5013835;28;20020;-80
2023/10/30 03:02:22;;;;;;;11.27;4.10;;;;;;;22.11;100.00;95237.00;4997122;28;20549;-80
2023/10/30 03:04:47;;;;;;;7.13;3.97;;;;;;;22.09;100.00;95223.84;5019459;28;20021;-80
2023/10/30 03:07:15;;;;;;;6.97;3.67;;;;;;;21.82;100.00;95218.56;4997563;28;20368;-79
2023/10/30 03:09:40;;;;;;;5.23;3.20;;;;;;;22.50;98.22;95208.13;5012337;28;20024;-80
2023/10/30 03:12:06;;;;;;;8.20;4.50;;;;;;;21.66;100.00;95216.81;5003052;28;20017;-80
2023/10/30 03:14:32;;;;;;;6.23;4.10;;;;;;;21.89;100.00;95216.47;4998510;28;20117;-79
2023/10/30 03:16:58;;;;;;;6.37;4.00;;;;;;;22.23;97.31;95215.41;5002696;28;20471;-79
2023/10/30 03:19:23;;;;;;;6.30;4.10;;;;;;;22.83;95.54;95212.28;4999280;28;20037;-79
2023/10/30 03:21:49;;;;;;;10.37;3.83;;;;;;;22.78;95.08;95214.16;5014571;28;20021;-79
2023/10/30 03:24:18;;;;;;;5.40;3.60;;;;;;;22.45;95.83;95213.44;4997853;28;20021;-79
2023/10/30 03:26:44;;;;;;;7.50;3.73;;;;;;;22.15;99.27;95216.72;5017817;28;20013;-79
2023/10/30 03:29:09;;;;;;;6.57;3.83;;;;;;;21.79;100.00;95211.03;5023378;28;20025;-80
2023/10/30 03:31:35;;;;;;;4.80;3.07;;;;;;;22.16;100.00;95198.78;5008381;28;20101;-79
2023/10/30 03:34:01;;;;;;;7.00;3.90;;;;;;;22.14;97.38;95204.38;5011731;28;20074;-79
2023/10/30 03:36:28;;;;;;;6.27;3.03;;;;;;;21.69;100.00;95207.47;5000447;28;20024;-80
2023/10/30 03:38:58;;;;;;;4.77;2.80;;;;;;;22.27;97.86;95214.66;5013262;28;20155;-79
2023/10/30 03:41:24;;;;;;;4.73;3.00;;;;;;;22.75;95.60;95212.00;5022566;28;20069;-79
2023/10/30 03:43:49;;;;;;;4.70;2.70;;;;;;;22.86;91.21;95205.59;5006899;28;20049;-79
2023/10/30 03:46:15;;;;;;;4.27;2.80;;;;;;;22.86;89.62;95218.19;5009375;28;20022;-79
2023/10/30 03:48:41;;;;;;;5.10;2.67;;;;;;;23.03;88.49;95211.59;5056057;28;20103;-80
2023/10/30 03:51:07;;;;;;;6.10;2.70;;;;;;;22.98;88.29;95208.09;5026273;28;20021;-80
2023/10/30 03:53:33;;;;;;;4.97;2.40;;;;;;;23.03;90.47;95208.13;5034908;28;20041;-80
2023/10/30 03:55:58;;;;;;;3.83;2.30;;;;;;;23.21;87.87;95209.53;5034202;28;20026;-78
2023/10/30 03:58:25;;;;;;;3.47;2.10;;;;;;;23.05;90.05;95201.44;4991449;28;20041;-79
2023/10/30 04:00:51;;;;;;;3.83;1.90;;;;;;;22.99;88.05;95202.47;5009462;28;20120;-79
2023/10/30 04:03:16;;;;;;;3.60;1.83;;;;;;;22.09;94.62;95204.31;5017355;28;20026;-79
2023/10/30 04:05:42;;;;;;;3.63;2.10;;;;;;;21.92;100.00;95206.31;5013172;28;20039;-79
2023/10/30 04:08:08;;;;;;;3.80;2.13;;;;;;;22.24;99.94;95203.66;5026717;28;20029;-79
2023/10/30 04:10:33;;;;;;;3.57;2.20;;;;;;;22.36;94.36;95201.59;4997201;28;20116;-79
2023/10/30 04:12:59;;;;;;;4.27;2.10;;;;;;;22.56;93.23;95184.81;4994427;28;20025;-79
2023/10/30 04:15:25;;;;;;;6.77;2.30;;;;;;;22.60;93.08;95185.91;5008795;28;20497;-79
2023/10/30 04:17:50;;;;;;;6.30;2.60;;;;;;;23.08;91.24;95180.53;5005068;28;20030;-79
2023/10/30 04:20:16;;;;;;;3.37;2.00;;;;;;;22.89;86.33;95180.16;5001922;28;20033;-79
2023/10/30 04:22:41;;;;;;;3.93;1.80;;;;;;;22.96;87.90;95175.38;4993060;28;20037;-78
2023/10/30 04:25:08;;;;;;;4.00;2.10;;;;;;;23.05;87.29;95174.59;4999402;28;20025;-79
2023/10/30 04:27:34;;;;;;;3.40;2.00;;;;;;;22.61;87.44;95179.50;5014777;28;20767;-79
2023/10/30 04:30:01;;;;;;;2.93;2.00;;;;;;;22.74;88.87;95173.66;4995040;28;20082;-79
2023/10/30 04:32:33;;;;;;;4.90;2.07;;;;;;;21.81;95.83;95167.97;4994998;28;20038;-79
2023/10/30 04:34:59;;;;;;;4.80;2.58;;;;;;;22.23;95.97;95168.03;5029165;28;20033;-80
2023/10/30 04:37:24;;;;;;;3.23;2.20;;;;;;;22.13;95.01;95154.53;5019052;28;21244;-79
2023/10/30 04:39:50;;;;;;;6.00;2.30;;;;;;;22.14;96.77;95150.81;5029191;28;20530;-79
2023/10/30 04:42:16;;;;;;;6.80;2.90;;;;;;;21.80;96.56;95142.28;4990170;28;20024;-79
2023/10/30 04:44:41;;;;;;;6.53;3.03;;;;;;;21.77;100.00;95154.31;5026456;28;20030;-79
2023/10/30 04:47:07;;;;;;;6.87;3.07;;;;;;;21.49;100.00;95149.22;5013353;28;20096;-79
2023/10/30 04:49:35;;;;;;;6.83;3.60;;;;;;;21.11;100.00;95145.63;5027184;28;20048;-79
2023/10/30 04:52:04;;;;;;;8.03;3.93;;;;;;;21.13;100.00;95146.22;4997079;28;20079;-79
2023/10/30 04:54:30;;;;;;;5.63;3.10;;;;;;;21.23;100.00;95146.31;5009540;28;20817;-79
2023/10/30 04:56:55;;;;;;;5.53;3.73;;;;;;;21.69;100.00;95144.06;5001138;28;20107;-79
2023/10/30 04:59:22;;;;;;;5.60;3.07;;;;;;;21.73;98.22;95139.00;5005259;28;20053;-80
2023/10/30 05:01:48;;;;;;;5.13;3.10;;;;;;;22.01;95.89;95140.56;5020096;28;20040;-79
2023/10/30 05:04:17;;;;;;;4.70;3.10;;;;;;;22.22;88.27;95138.84;4991474;28;20029;-79
2023/10/30 05:06:48;;;;;;;5.20;3.03;;;;;;;21.92;93.41;95145.56;5021129;28;20609;-79
2023/10/30 05:09:14;;;;;;;6.00;3.57;;;;;;;21.91;94.35;95143.16;4992355;28;20096;-80
2023/10/30 05:11:40;;;;;;;6.07;3.53;;;;;;;21.51;98.76;95145.25;5011745;28;20057;-79
2023/10/30 05:14:07;;;;;;;6.13;3.87;;;;;;;21.18;100.00;95136.34;5006880;28;20025;-79
2023/10/30 05:16:33;;;;;;;7.60;4.13;;;;;;;21.68;96.97;95125.59;4993888;28;20029;-82
2023/10/30 05:19:00;;;;;;;6.63;3.43;;;;;;;21.47;96.55;95120.06;4991317;28;20056;-79
2023/10/30 05:21:26;;;;;;;7.33;3.57;;;;;;;21.54;95.63;95112.66;4992965;28;20059;-80
2023/10/30 05:23:51;;;;;;;6.63;3.47;;;;;;;21.40;95.08;95106.91;4986654;28;20125;-80
2023/10/30 05:26:29;;;;;;;5.93;3.10;;;;;;;20.48;100.00;95121.13;5000119;28;20025;-79
2023/10/30 05:28:55;;;;;;;6.03;3.30;;;;;;;20.70;100.00;95129.16;5015072;28;20029;-80
2023/10/30 05:31:20;;;;;;;5.80;3.57;;;;;;;20.17;100.00;95144.75;5010480;28;20090;-80
2023/10/30 05:33:46;;;;;;;6.10;3.70;;;;;;;20.34;100.00;95152.72;5003722;28;20710;-79
2023/10/30 05:36:14;;;;;;;7.70;4.47;;;;;;;20.46;100.00;95161.44;5022014;28;20032;-79
2023/10/30 05:38:39;;;;;;;8.67;5.43;;;;;;;;;;5016073;28;20547;-80
2023/10/30 05:41:05;;;;;;;10.57;4.57;;;;;;;20.95;100.00;95164.19;5002418;28;20120;-78
2023/10/30 05:43:30;;;;;;;11.33;5.77;;;;;;;20.77;100.00;95172.53;5001427;28;20454;-79
2023/10/30 05:45:56;;;;;;;12.73;5.70;;;;;;;20.79;99.00;95170.44;5039096;28;20025;-79
2023/10/30 05:48:22;;;;;;;14.07;6.93;;;;;;;20.88;98.09;95162.75;4998845;28;20038;-80
2023/10/30 05:50:47;;;;;;;10.63;5.97;;;;;;;20.47;100.00;95146.22;4992696;28;20045;-79
2023/10/30 05:53:13;;;;;;;10.40;4.80;;;;;;;20.10;100.00;95157.47;5009052;28;20029;-79
2023/10/30 05:55:38;;;;;;;7.13;3.70;;;;;;;20.32;100.00;95146.84;5001992;28;20025;-80
2023/10/30 05:58:07;;;;;;;9.33;4.80;;;;;;;20.24;100.00;95128.56;4997776;28;20542;-80
2023/10/30 06:00:33;;;;;;;6.67;3.60;;;;;;;19.74;100.00;95143.59;4996425;28;20029;-79
2023/10/30 06:02:58;;;;;;;6.33;2.93;;;;;;;19.93;100.00;95146.81;5001293;28;20541;-80
2023/10/30 06:05:24;;;;;;;6.23;2.83;;;;;;;19.89;100.00;95145.69;5008751;28;20033;-79
2023/10/30 06:07:49;;;;;;;8.33;3.10;;;;;;;20.04;100.00;95147.75;4999355;28;20017;-79
2023/10/30 06:10:19;;;;;;;4.97;3.23;;;;;;;20.18;100.00;95143.69;5000236;28;20104;-80
2023/10/30 06:12:47;;;;;;;10.13;4.70;;;;;;;20.26;100.00;95153.16;4999460;28;20026;-80
2023/10/30 06:15:13;;;;;;;8.43;5.10;;;;;;;19.76;100.00;95146.03;5001663;28;20553;-80
2023/10/30 06:17:39;;;;;;;6.93;4.30;;;;;;;19.73;100.00;95146.50;5004255;28;20594;-80
2023/10/30 06:20:07;;;;;;;5.40;3.30;;;;;;;19.75;100.00;95145.22;4992439;28;20087;-80
2023/10/30 06:22:32;;;;;;;9.00;3.80;;;;;;;19.04;100.00;95144.78;5002802;28;20025;-80
2023/10/30 06:25:00;;;;;;;8.10;3.40;;;;;;;19.43;100.00;95136.13;5009016;28;20044;-79
2023/10/30 06:27:34;;;;;;;6.23;3.60;;;;;;;19.50;100.00;95142.91;5012979;28;20056;-80
2023/10/30 06:30:04;;;;;;;7.80;3.30;;;;;;;19.03;100.00;95135.16;4998653;28;20503;-80
2023/10/30 06:32:36;;;;;;;9.53;4.03;;;;;;;18.74;100.00;95145.00;5010517;28;20510;-80
2023/10/30 06:35:02;;;;;;;11.20;4.73;;;;;;;19.44;100.00;95140.41;4999375;28;20205;-81
2023/10/30 06:37:28;;;;;;;9.63;4.80;;;;;;;18.77;100.00;95149.06;5009434;28;20667;-81
2023/10/30 06:39:53;;;;;;;11.33;4.37;;;;;;;18.67;100.00;95146.97;5014291;28;20021;-79
2023/10/30 06:42:19;;;;;;;10.27;3.57;;;;;;;19.35;100.00;95153.34;5003841;28;20041;-79
2023/10/30 06:44:44;;;;;;;10.83;4.03;;;;;;;19.46;100.00;95147.13;4998427;28;20025;-79
2023/10/30 06:47:10;;;;;;;9.07;3.97;;;;;;;19.83;100.00;95152.00;5018683;28;20045;-80
2023/10/30 06:49:35;;;;;;;6.93;3.67;;;;;;;18.99;100.00;95147.34;4998535;28;20402;-79
2023/10/30 06:52:04;;;;;;;6.10;2.83;;;;;;;18.66;100.00;95149.88;5001505;28;20102;-80
2023/10/30 06:54:30;;;;;;;5.97;3.00;;;;;;;18.89;100.00;95141.03;5031412;28;20544;-80
2023/10/30 06:56:57;;;;;;;10.87;3.40;;;;;;;19.13;100.00;95147.88;5008525;28;20025;-80
2023/10/30 06:59:23;;;;;;;5.00;2.87;;;;;;;19.57;100.00;95145.41;5015185;28;20032;-80
2023/10/30 07:02:03;;;;;;;5.27;2.27;;;;;;;19.62;100.00;95144.72;4999976;28;20033;-79
2023/10/30 07:04:30;;;;;;;10.23;2.20;;;;;;;19.90;100.00;95131.28;5026064;28;20049;-79
2023/10/30 07:06:56;;;;;;;4.23;2.10;;;;;;;20.08;100.00;95132.88;5020468;28;20029;-80
2023/10/30 07:09:21;;;;;;;6.47;2.30;;;;;;;19.36;100.00;95144.28;4996518;28;20037;-80
2023/10/30 07:11:47;;;;;;;4.60;2.13;;;;;;;19.47;100.00;95132.72;5007991;28;20029;-80
2023/10/30 07:14:14;;;;;;;6.53;2.20;;;;;;;19.37;100.00;95147.75;5031014;28;20034;-79
2023/10/30 07:16:40;;;;;;;9.13;3.43;;;;;;;20.01;100.00;95138.38;5003782;28;20026;-80
2023/10/30 07:19:06;;;;;;;4.73;2.13;;;;;;;19.74;100.00;95143.59;5001894;28;20025;-80
2023/10/30 07:21:39;;;;;;;5.07;2.10;;;;;;;19.94;100.00;95140.41;5011872;28;20503;-80
2023/10/30 07:24:05;;;;;;;5.55;2.25;;;;;;;19.77;100.00;95131.63;5001738;28;20017;-80
2023/10/30 07:26:30;;;;;;;4.90;2.13;;;;;;;19.95;100.00;95138.56;5002915;28;20038;-80
2023/10/30 07:28:56;;;;;;;5.03;1.93;;;;;;;20.15;100.00;95135.38;5031463;28;20028;-80
2023/10/30 07:31:21;;;;;;;11.67;3.30;;;;;;;20.87;100.00;95135.25;5002556;28;20032;-80
2023/10/30 07:33:53;;;;;;;5.03;2.50;;;;;;;20.86;97.04;95144.31;4992696;28;20021;-80
2023/10/30 07:36:19;;;;;;;4.53;1.90;;;;;;;21.33;97.37;95138.38;5028721;28;20017;-80
2023/10/30 07:38:44;;;;;;;4.63;1.90;;;;;;;20.65;98.25;95147.78;5030481;28;20021;-80
2023/10/30 07:41:10;;;;;;;7.23;2.10;;;;;;;21.49;95.99;95146.56;5017934;28;20024;-80
2023/10/30 07:43:35;;;;;;;5.53;1.80;;;;;;;21.94;87.43;95145.31;5013264;28;20029;-79
2023/10/30 07:46:01;;;;;;;4.37;1.43;;;;;;;20.71;93.96;95152.94;5018254;28;20643;-80
2023/10/30 07:48:26;;;;;;;3.90;1.40;;;;;;;22.14;91.07;95142.78;5033309;28;20044;-80
2023/10/30 07:50:53;;;;;;;5.00;1.40;;;;;;;21.86;87.53;95149.25;5004550;28;20026;-80
2023/10/30 07:53:18;;;;;;;2.87;1.30;;;;;;;21.78;84.85;95150.56;5013485;28;20039;-80
2023/10/30 07:55:47;;;;;;;1.90;1.20;;;;;;;22.36;85.12;95137.28;5022314;28;20025;-79
2023/10/30 07:58:13;;;;;;;3.87;1.67;;;;;;;22.13;85.21;95135.78;5009122;28;20120;-80
2023/10/30 08:00:39;;;;;;;5.47;1.80;;;;;;;21.26;93.97;95137.78;5015010;28;20026;-80
2023/10/30 08:03:05;;;;;;;5.53;1.63;;;;;;;20.82;96.98;95143.19;5039039;28;20451;-80
2023/10/30 08:05:33;;;;;;;5.03;1.60;;;;;;;20.88;97.60;95139.50;4993434;28;20064;-80
2023/10/30 08:08:17;;;;;;;4.07;1.77;;;;;;;21.73;92.39;95129.13;5011608;28;20056;-80
2023/10/30 08:10:45;;;;;;;3.73;1.43;;;;;;;21.49;91.93;95128.63;4995378;28;20117;-80
2023/10/30 08:13:12;;;;;;;2.60;1.20;;;;;;;21.59;94.06;95123.38;5004852;28;20565;-79
2023/10/30 08:15:37;;;;;;;2.83;1.60;;;;;;;21.10;95.20;95134.16;5009837;28;20121;-80
2023/10/30 08:18:05;;;;;;;2.60;1.30;;;;;;;21.30;93.05;95130.06;5006400;28;20036;-80
2023/10/30 08:20:31;;;;;;;3.03;1.43;;;;;;;21.24;93.30;95133.75;5021628;28;20036;-79
2023/10/30 08:22:56;;;;;;;2.20;1.37;;;;;;;21.72;91.92;95140.06;5028822;28;20138;-80
2023/10/30 08:25:25;;;;;;;3.30;1.60;;;;;;;21.63;90.43;95143.22;5007597;28;21116;-80
2023/10/30 08:27:51;;;;;;;4.80;1.80;;;;;;;21.58;97.92;95131.66;5017497;28;20471;-80
2023/10/30 08:30:16;;;;;;;3.33;1.13;;;;;;;21.59;96.49;95120.69;5016855;28;20056;-80
2023/10/30 08:32:42;;;;;;;3.43;1.43;;;;;;;20.86;92.66;95122.94;5021942;28;20910;-80
2023/10/30 08:35:08;;;;;;;4.37;2.00;;;;;;;21.91;90.50;95122.53;5019914;28;20026;-80
2023/10/30 08:37:33;;;;;;;3.73;1.40;;;;;;;22.78;83.74;95104.25;5017214;28;20028;-80
2023/10/30 08:39:59;;;;;;;4.13;1.47;;;;;;;23.45;77.73;95102.53;5009783;28;20029;-80
2023/10/30 08:42:24;;;;;;;3.83;1.63;;;;;;;23.35;78.46;95099.84;4999364;28;20033;-80
2023/10/30 08:44:50;;;;;;;2.43;1.27;;;;;;;22.11;80.29;95113.84;4996861;28;20037;-80
2023/10/30 08:47:15;;;;;;;4.03;1.40;;;;;;;22.51;82.69;95109.78;5006204;28;20238;-80
2023/10/30 08:49:41;;;;;;;5.70;1.73;;;;;;;22.98;80.26;95101.66;5007474;28;20060;-80
2023/10/30 08:52:11;;;;;;;2.67;1.20;;;;;;;23.54;71.32;95106.28;5013429;28;20024;-80
2023/10/30 08:54:37;;;;;;;3.13;1.58;;;;;;;23.92;70.16;95099.56;4997489;28;20029;-80
2023/10/30 08:57:03;;;;;;;2.55;1.35;;;;;;;23.77;69.28;95102.28;5024245;28;20039;-80
2023/10/30 08:59:29;;;;;;;3.13;1.52;;;;;;;22.67;74.35;95106.09;4999549;28;20053;-80
2023/10/30 09:01:54;;;;;;;3.17;1.38;;;;;;;24.17;68.44;95096.03;5019524;28;20029;-80
2023/10/30 09:04:20;;;;;;;1.85;1.05;;;;;;;22.66;78.22;95096.44;5018207;28;20029;-80
2023/10/30 09:06:45;;;;;;;1.92;1.17;;;;;;;22.14;79.97;95089.22;5004380;28;20074;-80
2023/10/30 09:09:12;;;;;;;3.10;1.50;;;;;;;24.21;65.24;95089.06;4991566;28;20018;-79
2023/10/30 09:11:37;;;;;;;2.33;1.20;;;;;;;24.23;63.35;95080.72;5010323;28;20025;-82
2023/10/30 09:14:03;;;;;;;2.33;1.10;;;;;;;23.37;67.90;95078.91;5028253;28;20510;-80
2023/10/30 09:16:29;;;;;;;1.65;0.90;;;;;;;24.48;62.67;95074.47;5002339;28;20814;-80
2023/10/30 09:18:56;;;;;;;1.65;1.02;;;;;;;25.57;59.33;95070.88;4991987;28;20029;-80
2023/10/30 09:21:21;;;;;;;2.50;0.90;;;;;;;24.00;65.07;95068.66;5001230;28;20053;-80
2023/10/30 09:23:52;;;;;;;1.60;0.90;;;;;;;24.39;60.92;95068.03;4987351;28;20491;-80
2023/10/30 09:26:17;;;;;;;2.13;1.10;;;;;;;24.17;63.40;95065.69;5000069;28;20120;-80
2023/10/30 09:28:43;;;;;;;2.60;1.23;;;;;;;23.04;70.13;95075.66;4989524;28;20521;-81
2023/10/30 09:31:08;;;;;;;2.60;1.23;;;;;;;23.50;69.39;95078.38;4997309;28;20064;-80
2023/10/30 09:33:34;;;;;;;2.58;1.42;;;;;;;23.90;68.64;95074.06;5017188;28;20557;-80
2023/10/30 09:35:59;;;;;;;4.82;1.63;;;;;;;23.93;68.87;95076.22;5008422;28;20057;-80
2023/10/30 09:38:26;;;;;;;4.03;1.40;;;;;;;24.49;65.83;95078.78;4995455;28;20431;-80
2023/10/30 09:41:07;;;;;;;2.88;1.27;;;;;;;24.73;61.60;95083.50;5016412;28;20041;-79
2023/10/30 09:43:37;;;;;;;5.35;1.60;;;;;;;25.56;60.27;95075.44;5016025;28;20056;-80
2023/10/30 09:46:06;;;;;;;2.03;1.10;;;;;;;23.73;65.71;95091.25;5028706;28;20036;-80
2023/10/30 09:48:32;;;;;;;3.13;0.98;;;;;;;23.57;66.22;95088.84;5014939;28;20033;-80
2023/10/30 09:51:00;;;;;;;1.83;1.00;;;;;;;24.58;66.51;95087.88;4994355;28;20025;-80
2023/10/30 09:53:27;;;;;;;3.03;1.05;;;;;;;23.98;66.85;95084.28;5013921;28;20870;-80
2023/10/30 09:55:54;;;;;;;2.75;0.90;;;;;;;24.54;65.80;95084.09;5002329;28;20088;-80
2023/10/30 09:58:24;;;;;;;2.85;1.17;;;;;;;23.88;67.63;95074.34;5014408;28;20028;-80
2023/10/30 10:00:50;;;;;;;3.95;1.15;;;;;;;22.60;78.18;95070.69;4987011;28;20029;-81
2023/10/30 10:03:16;;;;;;;2.55;0.82;;;;;;;23.55;76.08;95059.59;5020900;28;20029;-80
2023/10/30 10:05:41;;;;;;;2.50;0.88;;;;;;;23.56;69.58;95055.03;5005546;28;20029;-80
2023/10/30 10:08:08;;;;;;;3.13;1.05;;;;;;;24.27;66.53;95043.34;5004758;28;20437;-80
2023/10/30 10:11:02;;;;;;;1.67;0.85;;;;;;;24.08;74.02;95037.75;5013548;28;20040;-80
2023/10/30 10:13:33;;;;;;;2.85;1.00;;;;;;;23.78;70.40;95042.16;5019164;28;20028;-80
2023/10/30 10:16:00;;;;;;;2.15;0.95;;;;;;;24.21;68.89;95037.19;5044903;28;20028;-80
2023/10/30 10:18:31;;;;;;;3.58;1.10;;;;;;;24.31;66.47;95034.47;5024660;28;20101;-80
2023/10/30 10:21:04;;;;;;;1.85;0.80;;;;;;;25.17;60.35;95029.72;5021234;28;20030;-80
2023/10/30 10:23:33;;;;;;;3.00;0.70;;;;;;;24.65;60.87;95023.88;5000459;28;20029;-80
2023/10/30 10:26:03;;;;;;;3.38;0.80;;;;;;;24.74;63.17;95020.56;5002536;28;20668;-80
2023/10/30 10:28:29;;;;;;;2.35;0.90;;;;;;;23.45;69.02;95027.41;5002914;28;20158;-80
2023/10/30 10:30:55;;;;;;;4.22;1.17;;;;;;;24.32;66.36;95019.16;5004347;28;20166;-80
2023/10/30 10:33:27;;;;;;;1.98;0.70;;;;;;;24.11;65.60;95013.03;5033025;28;20501;-80
2023/10/30 10:35:53;;;;;;;3.47;0.75;;;;;;;24.62;65.95;95004.81;4997986;28;20059;-81
2023/10/30 10:38:21;;;;;;;4.10;0.82;;;;;;;24.95;64.05;95000.56;5042787;28;20090;-80
2023/10/30 10:40:47;;;;;;;3.15;1.83;;;;;;;24.83;63.42;94998.19;5024218;28;20025;-80
2023/10/30 10:43:21;;;;;;;2.05;0.63;;;;;;;24.85;62.68;94992.56;4999623;28;20112;-80
2023/10/30 10:45:49;;;;;;;2.28;0.90;;;;;;;25.31;60.20;94992.22;5029364;28;20033;-79
2023/10/30 10:48:16;;;;;;;2.65;0.70;;;;;;;25.09;60.00;94985.38;5006148;28;20518;-80
2023/10/30 10:50:46;;;;;;;2.17;0.70;;;;;;;24.10;62.27;94996.13;5024572;28;20032;-80
2023/10/30 10:53:20;;;;;;;2.00;0.65;;;;;;;24.71;60.82;94976.22;4996232;28;20430;-80
2023/10/30 10:55:49;;;;;;;1.63;0.60;;;;;;;24.85;59.34;94973.75;5007347;28;20033;-80
2023/10/30 10:58:37;;;;;;;0.93;0.50;;;;;;;25.28;57.70;94963.19;5020725;28;20394;-80
2023/10/30 11:01:09;;;;;;;0.98;0.57;;;;;;;25.44;57.40;94956.56;5017018;28;20022;-80
2023/10/30 11:03:39;;;;;;;2.60;0.70;;;;;;;25.46;54.53;94945.53;5013270;28;20117;-80
2023/10/30 11:06:06;;;;;;;2.15;0.70;;;;;;;24.78;57.81;94951.72;5012176;28;20502;-80
2023/10/30 11:08:53;;;;;;;2.15;0.68;;;;;;;25.07;57.82;94949.88;5018173;28;20212;-81
2023/10/30 11:11:37;;;;;;;2.08;0.88;;;;;;;24.45;57.83;94943.34;5000371;28;20078;-81
2023/10/30 11:14:19;;;;;;;1.77;0.77;;;;;;;24.74;60.86;94937.22;5015887;28;20029;-80
2023/10/30 11:16:53;;;;;;;2.33;0.60;;;;;;;25.08;58.78;94924.59;5005322;28;20075;-80
2023/10/30 11:19:22;;;;;;;;;;;;;;;25.02;60.05;94925.72;5005957;28;20113;-80
2023/10/30 11:21:50;;;;;;;3.92;0.80;;;;;;;24.98;61.24;94913.09;5025193;28;20202;-80
2023/10/30 11:24:34;;;;;;;2.05;1.00;;;;;;;25.31;56.74;94904.22;5008633;28;20392;-80
2023/10/30 11:26:59;;;;;;;3.33;0.77;;;;;;;24.54;63.24;94912.09;5026117;28;20025;-83
2023/10/30 11:30:05;;;;;;;2.50;0.70;;;;;;;25.64;59.05;94904.41;5032554;28;20030;-78